Time;durP1;ratioP1;P1;durP2;ratioP2;P2;SDS_P1;SDS_P2;PMS_P1;PMS_P2;Temp;Humidity;BMP_temperature;BMP_pressure;BME280_temperature;BME280_humidity;BME280_pressure;Samples;Min_cycle;Max_cycle;Signal;HPM_P1;HPM_P2
2021/04/19 00:02:17;;;;;;;2.02;1.27;;;;;;;7.66;80.92;97696.67;1704980;84;21192;-72
2021/04/19 00:04:46;;;;;;;1.45;1.15;;;;;;;7.73;80.64;97706.00;1704834;84;21179;-72
2021/04/19 00:07:15;;;;;;;1.77;1.00;;;;;;;7.75;80.34;97695.05;1704834;84;21200;-67
2021/04/19 00:09:45;;;;;;;1.70;1.12;;;;;;;7.68;81.02;97697.34;1704959;84;21172;-69
2021/04/19 00:12:13;;;;;;;1.45;1.32;;;;;;;7.67;80.71;97694.41;1704755;84;21621;-72
2021/04/19 00:14:41;;;;;;;2.50;1.22;;;;;;;7.66;80.67;97694.09;1705085;84;21227;-68
2021/04/19 00:17:09;;;;;;;2.52;1.25;;;;;;;7.63;80.96;97691.27;1705044;84;21203;-67
2021/04/19 00:19:37;;;;;;;3.02;2.08;;;;;;;7.63;80.70;97694.33;1704707;84;21172;-68
2021/04/19 00:22:05;;;;;;;3.92;2.20;;;;;;;7.64;80.33;97690.33;1704828;84;21160;-67
2021/04/19 00:24:34;;;;;;;1.98;1.77;;;;;;;7.64;80.48;97685.63;1704925;84;21612;-68
2021/04/19 00:27:02;;;;;;;2.95;2.02;;;;;;;7.58;81.17;97689.58;1704766;84;21187;-68
2021/04/19 00:29:30;;;;;;;3.25;1.98;;;;;;;7.56;80.73;97681.12;1704736;84;21172;-68
2021/04/19 00:31:58;;;;;;;2.58;1.95;;;;;;;7.54;81.04;97687.38;1664247;85;21859;-68
2021/04/19 00:34:27;;;;;;;4.95;2.22;;;;;;;7.52;81.36;97684.91;1712769;84;21223;-68
2021/04/19 00:36:54;;;;;;;4.53;2.37;;;;;;;7.48;81.63;97681.42;1712567;84;21163;-68
2021/04/19 00:39:23;;;;;;;2.40;1.80;;;;;;;7.42;82.11;97674.20;1712553;83;21168;-68
2021/04/19 00:41:51;;;;;;;2.55;2.08;;;;;;;7.39;82.63;97679.64;1712539;84;21235;-68
2021/04/19 00:44:18;;;;;;;3.08;1.98;;;;;;;7.34;82.78;97680.48;1712595;83;21219;-68
2021/04/19 00:46:48;;;;;;;3.75;2.45;;;;;;;7.22;83.89;97677.64;1712239;84;21208;-68
2021/04/19 00:49:17;;;;;;;3.35;2.30;;;;;;;7.19;83.47;97680.02;1712352;84;21623;-71
2021/04/19 00:51:46;;;;;;;4.78;2.87;;;;;;;7.10;83.53;97678.20;1712480;84;21144;-72
2021/04/19 00:54:15;;;;;;;6.25;2.30;;;;;;;7.11;83.92;97673.38;1712238;84;21176;-72
2021/04/19 00:56:46;;;;;;;2.47;2.20;;;;;;;7.13;83.92;97677.94;1710054;83;21212;-72
2021/04/19 00:59:14;;;;;;;3.50;2.50;;;;;;;7.14;83.63;97675.23;1712659;84;21615;-72
2021/04/19 01:01:44;;;;;;;4.95;2.60;;;;;;;7.11;84.19;97672.09;1713225;84;21136;-72
2021/04/19 01:04:12;;;;;;;3.72;2.10;;;;;;;7.07;84.56;97666.38;1692942;84;21187;-72
2021/04/19 01:06:41;;;;;;;3.72;2.30;;;;;;;7.03;85.15;97669.33;1712589;84;21133;-72
2021/04/19 01:09:10;;;;;;;4.62;2.30;;;;;;;7.04;84.47;97665.81;1711838;84;21247;-72
2021/04/19 01:11:38;;;;;;;5.37;2.17;;;;;;;6.99;84.87;97664.08;1712425;83;21180;-68
2021/04/19 01:14:07;;;;;;;3.67;2.20;;;;;;;7.04;83.82;97658.86;1712194;83;21163;-68
2021/04/19 01:16:36;;;;;;;3.50;1.92;;;;;;;7.06;83.47;97662.14;1712354;83;21188;-68
2021/04/19 01:19:06;;;;;;;3.17;2.30;;;;;;;7.07;83.32;97667.66;1712456;84;21183;-67
2021/04/19 01:21:34;;;;;;;3.65;2.65;;;;;;;7.04;83.49;97669.69;1712261;84;21217;-67
2021/04/19 01:24:04;;;;;;;4.55;2.37;;;;;;;7.03;83.97;97668.86;1692055;84;21611;-67
2021/04/19 01:26:33;;;;;;;2.50;2.17;;;;;;;7.02;83.54;97669.80;1712604;84;21163;-67
2021/04/19 01:29:02;;;;;;;6.03;2.05;;;;;;;6.99;84.16;97665.37;1712347;84;21209;-67
2021/04/19 01:31:31;;;;;;;3.10;1.87;;;;;;;6.97;84.38;97665.48;1712448;83;21172;-68
2021/04/19 01:34:02;;;;;;;4.10;2.50;;;;;;;6.97;84.98;97666.77;1696501;83;21167;-67
2021/04/19 01:36:31;;;;;;;5.70;1.85;;;;;;;6.95;84.49;97665.27;1704795;84;21248;-67
2021/04/19 01:38:59;;;;;;;2.15;1.57;;;;;;;6.94;84.86;97668.32;1704693;84;21208;-68
2021/04/19 01:41:29;;;;;;;2.60;2.05;;;;;;;6.96;84.01;97661.75;1704783;84;21172;-68
2021/04/19 01:44:03;;;;;;;3.62;2.10;;;;;;;6.99;84.01;97663.61;1704716;84;21184;-68
2021/04/19 01:46:32;;;;;;;3.33;2.33;;;;;;;6.98;85.64;97663.72;1704705;84;21286;-67
2021/04/19 01:49:00;;;;;;;3.08;1.98;;;;;;;6.97;85.66;97663.37;1704686;84;21168;-68
2021/04/19 01:51:30;;;;;;;3.85;2.15;;;;;;;6.92;85.83;97661.66;1705203;84;21164;-72
2021/04/19 01:53:58;;;;;;;2.00;1.50;;;;;;;6.89;86.79;97660.60;1704761;84;21176;-71
2021/04/19 01:56:26;;;;;;;3.77;2.33;;;;;;;6.90;86.25;97658.38;1696445;84;21232;-73
2021/04/19 01:58:56;;;;;;;3.80;2.10;;;;;;;6.92;85.56;97657.79;1696411;84;21180;-73
2021/04/19 02:01:26;;;;;;;3.10;1.90;;;;;;;6.95;84.99;97657.53;1704864;84;21260;-73
2021/04/19 02:04:12;;;;;;;3.42;2.12;;;;;;;6.97;84.54;97662.90;1704777;84;21196;-73
2021/04/19 02:07:25;;;;;;;3.15;1.75;;;;;;;6.98;84.65;97664.55;1704967;84;21152;-72
2021/04/19 02:13:00;;;;;;;3.50;2.22;;;;;;;6.99;85.03;97671.34;1716474;82;21199;-68
2021/04/19 02:19:08;;;;;;;3.50;1.52;;;;;;;6.99;84.41;97661.02;1736615;81;21611;-68
2021/04/19 02:21:42;;;;;;;4.50;1.80;;;;;;;7.02;84.45;97671.09;1698492;83;21183;-69
2021/04/19 02:24:16;;;;;;;3.27;2.22;;;;;;;7.05;84.14;97665.66;1751995;80;21135;-69
2021/04/19 02:26:49;;;;;;;4.03;1.50;;;;;;;7.08;83.87;97665.91;1752250;82;21305;-67
2021/04/19 02:29:41;;;;;;;2.30;1.47;;;;;;;7.13;83.77;97671.48;1752171;81;21207;-67
2021/04/19 02:32:20;;;;;;;3.85;2.10;;;;;;;7.17;83.72;97665.11;1752172;82;21934;-68
2021/04/19 02:34:52;;;;;;;2.70;2.27;;;;;;;7.21;83.84;97663.91;1752053;81;21172;-68
2021/04/19 02:37:23;;;;;;;3.62;2.55;;;;;;;7.25;83.89;97665.76;1745447;81;21228;-68
2021/04/19 02:39:52;;;;;;;4.53;2.27;;;;;;;7.30;83.55;97662.32;1752067;82;21608;-69
2021/04/19 02:42:20;;;;;;;5.58;2.42;;;;;;;7.30;84.16;97663.61;1752038;82;21661;-68
2021/04/19 02:44:51;;;;;;;3.45;2.37;;;;;;;7.29;84.36;97662.79;1752050;81;21187;-69
2021/04/19 02:47:30;;;;;;;4.17;3.02;;;;;;;7.29;84.45;97661.97;1751733;82;21305;-72
2021/04/19 02:50:11;;;;;;;3.85;2.55;;;;;;;7.32;84.29;97662.52;1751858;81;21171;-73
2021/04/19 02:52:41;;;;;;;4.80;2.47;;;;;;;7.37;84.05;97660.37;1751333;81;21195;-73
2021/04/19 02:55:11;;;;;;;3.90;2.50;;;;;;;7.45;83.73;97663.61;1752340;82;21144;-73
2021/04/19 02:58:04;;;;;;;5.12;3.35;;;;;;;7.46;83.78;97664.78;1752095;80;21349;-73
2021/04/19 03:00:44;;;;;;;6.58;3.85;;;;;;;7.45;84.15;97658.44;1684592;84;21198;-73
2021/04/19 03:03:23;;;;;;;9.05;3.65;;;;;;;7.44;84.24;97652.45;1684143;84;21537;-73
2021/04/19 03:05:54;;;;;;;6.50;3.98;;;;;;;7.45;83.74;97651.98;1653689;85;21168;-73
2021/04/19 03:08:27;;;;;;;7.00;3.87;;;;;;;7.46;83.47;97653.63;1653447;84;21264;-72
2021/04/19 03:14:11;;;;;;;4.45;2.98;;;;;;;7.58;82.80;97651.28;1659820;84;21229;-72
2021/04/19 03:16:55;;;;;;;6.20;2.92;;;;;;;7.58;83.08;97646.11;1684349;83;21157;-70
2021/04/19 03:19:28;;;;;;;5.15;3.80;;;;;;;7.58;83.04;97648.70;1719638;83;21140;-71
2021/04/19 03:22:00;;;;;;;4.80;2.83;;;;;;;7.59;83.12;97647.73;1719533;83;21609;-71
2021/04/19 03:24:31;;;;;;;4.78;3.30;;;;;;;7.61;82.84;97645.37;1723985;82;21272;-67
2021/04/19 03:27:12;;;;;;;3.25;2.20;;;;;;;7.62;82.90;97646.20;1720170;82;21546;-67
2021/04/19 03:29:43;;;;;;;3.83;2.67;;;;;;;7.58;83.28;97647.41;1720288;82;21311;-67
2021/04/19 03:32:17;;;;;;;4.75;2.95;;;;;;;7.53;83.44;97643.09;1720516;83;21150;-66
2021/04/19 03:34:47;;;;;;;4.95;2.47;;;;;;;7.54;83.91;97648.15;1719817;82;21581;-67
2021/04/19 03:37:23;;;;;;;4.25;3.17;;;;;;;7.49;84.39;97653.35;1719978;82;21217;-70
2021/04/19 03:40:21;;;;;;;7.62;4.92;;;;;;;7.49;84.74;97650.30;1719995;82;21153;-71
2021/04/19 03:42:52;;;;;;;4.78;3.33;;;;;;;7.44;84.58;97652.45;1719113;82;21269;-71
2021/04/19 03:45:24;;;;;;;3.72;2.47;;;;;;;7.37;84.67;97655.22;1720234;82;21589;-71
2021/04/19 03:48:15;;;;;;;7.35;4.30;;;;;;;7.37;84.78;97660.85;1720408;83;21319;-68
2021/04/19 03:50:58;;;;;;;5.72;3.83;;;;;;;7.36;85.44;97657.45;1720018;81;21153;-69
2021/04/19 03:53:28;;;;;;;3.67;2.50;;;;;;;7.36;85.69;97657.91;1720101;82;21577;-69
2021/04/19 03:55:59;;;;;;;2.67;2.42;;;;;;;7.41;85.26;97655.30;1700242;83;21169;-70
2021/04/19 03:58:32;;;;;;;4.45;2.42;;;;;;;7.45;85.10;97657.14;1723925;83;21198;-72
2021/04/19 04:01:06;;;;;;;4.00;2.95;;;;;;;7.42;84.57;97658.70;1723920;82;21161;-73
2021/04/19 04:03:38;;;;;;;5.60;3.77;;;;;;;7.46;84.54;97656.20;1719309;83;21163;-71
2021/04/19 04:06:16;;;;;;;4.62;3.40;;;;;;;7.49;84.42;97661.11;1719651;81;21175;-71
2021/04/19 04:08:45;;;;;;;5.75;3.02;;;;;;;7.49;84.11;97658.52;1719673;82;21133;-69
2021/04/19 04:11:16;;;;;;;4.83;3.08;;;;;;;7.52;83.80;97660.84;1719964;82;21149;-67
2021/04/19 04:13:46;;;;;;;4.10;3.02;;;;;;;7.54;84.08;97660.25;1719616;82;21149;-69
2021/04/19 04:16:15;;;;;;;4.12;3.72;;;;;;;7.48;83.88;97662.05;1722942;82;21725;-67
2021/04/19 04:18:48;;;;;;;7.65;4.22;;;;;;;7.46;83.70;97661.37;1724872;81;21170;-70
2021/04/19 04:21:17;;;;;;;5.65;4.28;;;;;;;7.43;84.21;97659.05;1724469;82;21617;-70
2021/04/19 04:23:47;;;;;;;4.20;3.22;;;;;;;7.36;84.95;97665.19;1724858;81;21192;-68
2021/04/19 04:26:16;;;;;;;4.25;2.95;;;;;;;7.37;84.93;97660.85;1724904;82;21231;-69
2021/04/19 04:28:45;;;;;;;4.65;2.72;;;;;;;7.25;85.12;97671.74;1704592;82;21197;-68
2021/04/19 04:31:15;;;;;;;6.03;3.42;;;;;;;7.15;85.13;97656.69;1725232;81;21278;-71
2021/04/19 04:33:45;;;;;;;3.75;2.92;;;;;;;7.13;84.85;97663.27;1724948;81;21566;-71
2021/04/19 04:36:16;;;;;;;5.08;2.95;;;;;;;7.17;84.73;97663.81;1725828;82;21153;-71
2021/04/19 04:38:47;;;;;;;5.65;3.58;;;;;;;7.08;84.83;97662.81;1725538;81;21213;-66
2021/04/19 04:41:17;;;;;;;4.28;2.67;;;;;;;7.08;85.75;97665.91;1725844;82;21177;-67
2021/04/19 04:43:46;;;;;;;7.65;3.00;;;;;;;7.06;85.90;97667.78;1725386;81;21180;-66
2021/04/19 04:47:03;;;;;;;5.65;3.45;;;;;;;7.02;86.21;97669.80;1705525;82;21173;-66
2021/04/19 04:49:51;;;;;;;4.20;3.52;;;;;;;6.97;87.41;97667.24;1725325;81;21184;-66
2021/04/19 04:52:21;;;;;;;5.12;3.42;;;;;;;7.05;87.12;97666.95;1724915;81;21602;-67
2021/04/19 04:54:50;;;;;;;4.10;3.05;;;;;;;7.04;86.12;97664.02;1725738;81;21236;-67
2021/04/19 04:57:22;;;;;;;5.42;3.05;;;;;;;7.04;85.72;97665.31;1725852;81;21181;-67
2021/04/19 04:59:52;;;;;;;6.53;3.55;;;;;;;7.10;85.70;97660.13;1725519;83;21145;-68
2021/04/19 05:02:23;;;;;;;4.45;3.17;;;;;;;7.12;86.00;97665.49;1725595;82;21601;-67
2021/04/19 05:04:53;;;;;;;6.28;2.92;;;;;;;7.15;86.55;97666.55;1725298;81;21204;-68
2021/04/19 05:07:21;;;;;;;6.40;3.10;;;;;;;7.19;86.05;97667.58;1725383;81;21240;-69
2021/04/19 05:09:49;;;;;;;4.87;3.08;;;;;;;7.25;86.07;97665.76;1725382;81;21149;-68
2021/04/19 05:12:18;;;;;;;3.55;2.45;;;;;;;7.32;86.38;97663.81;1725285;82;21261;-69
2021/04/19 05:15:01;;;;;;;7.75;4.47;;;;;;;7.39;85.61;97658.97;1725567;82;21201;-70
2021/04/19 05:17:29;;;;;;;7.50;3.35;;;;;;;7.38;84.59;97662.49;1725590;82;21629;-68
2021/04/19 05:19:58;;;;;;;9.08;3.72;;;;;;;7.42;84.26;97659.52;1725192;81;21280;-70
2021/04/19 05:22:26;;;;;;;7.20;3.60;;;;;;;7.38;84.35;97654.74;1725314;83;21133;-69
2021/04/19 05:24:55;;;;;;;6.62;3.95;;;;;;;7.36;83.95;97661.31;1725299;82;21228;-69
2021/04/19 05:27:24;;;;;;;4.92;3.27;;;;;;;7.44;83.53;97663.25;1725349;81;21173;-69
2021/04/19 05:29:52;;;;;;;7.25;3.75;;;;;;;7.44;84.64;97661.48;1705306;83;21201;-67
2021/04/19 05:32:21;;;;;;;7.80;3.50;;;;;;;7.46;84.32;97659.61;1725277;82;21217;-67
2021/04/19 05:34:50;;;;;;;7.05;4.20;;;;;;;7.44;84.23;97658.09;1725567;82;21264;-68
2021/04/19 05:37:19;;;;;;;4.95;3.58;;;;;;;7.38;85.09;97655.56;1725632;82;21573;-68
2021/04/19 05:39:48;;;;;;;5.35;3.50;;;;;;;7.39;85.07;97660.27;1725358;82;21165;-70
2021/04/19 05:42:17;;;;;;;4.37;3.12;;;;;;;7.35;84.41;97654.54;1725581;81;21165;-68
2021/04/19 05:44:45;;;;;;;4.37;2.20;;;;;;;7.50;84.34;97655.00;1725509;82;21542;-68
2021/04/19 05:47:14;;;;;;;3.65;2.62;;;;;;;7.54;83.59;97657.19;1725537;81;21172;-68
2021/04/19 05:49:42;;;;;;;3.33;2.12;;;;;;;7.61;83.37;97654.42;1725453;82;21169;-68
2021/04/19 05:52:12;;;;;;;3.83;2.80;;;;;;;7.72;82.97;97650.08;1725433;82;21161;-68
2021/04/19 05:54:41;;;;;;;6.10;3.17;;;;;;;7.79;82.25;97652.47;1725428;81;21601;-68
2021/04/19 05:57:18;;;;;;;4.35;2.92;;;;;;;7.89;82.17;97649.45;1725541;81;21168;-68
2021/04/19 06:00:27;;;;;;;5.90;3.47;;;;;;;7.91;81.32;97650.12;1725689;82;21164;-68
2021/04/19 06:03:17;;;;;;;4.67;3.40;;;;;;;7.91;81.55;97654.82;1667169;85;21591;-68
2021/04/19 06:06:02;;;;;;;4.05;2.15;;;;;;;7.89;81.53;97660.61;1649280;86;21145;-68
2021/04/19 06:08:59;;;;;;;9.10;5.53;;;;;;;7.87;81.73;97654.74;1666601;86;21170;-67
2021/04/19 06:12:06;;;;;;;5.70;4.30;;;;;;;7.94;81.44;97660.19;1751081;81;21217;-68
2021/04/19 06:14:41;;;;;;;3.42;2.87;;;;;;;7.80;81.74;97658.00;1757403;81;21135;-66
2021/04/19 06:17:11;;;;;;;4.35;2.95;;;;;;;7.94;81.29;97658.89;1757321;82;21175;-68
2021/04/19 06:19:44;;;;;;;2.52;2.02;;;;;;;8.03;81.16;97664.09;1744546;82;21238;-69
2021/04/19 06:22:19;;;;;;;2.72;2.22;;;;;;;8.02;81.33;97649.52;1757397;81;21182;-68
2021/04/19 06:24:48;;;;;;;4.47;2.77;;;;;;;8.11;81.46;97656.96;1757089;82;21214;-70
2021/04/19 06:27:25;;;;;;;4.55;2.52;;;;;;;8.21;80.97;97660.86;1757214;82;21207;-69
2021/04/19 06:29:55;;;;;;;7.75;2.95;;;;;;;8.25;80.25;97655.77;1757525;82;21536;-66
2021/04/19 06:32:24;;;;;;;3.77;2.27;;;;;;;8.31;79.73;97650.06;1757382;80;21564;-68
2021/04/19 06:34:52;;;;;;;5.40;2.58;;;;;;;8.32;79.75;97650.41;1757589;80;21214;-68
2021/04/19 06:37:21;;;;;;;3.50;2.17;;;;;;;8.41;79.25;97649.58;1757253;82;21599;-68
2021/04/19 06:39:49;;;;;;;2.22;1.98;;;;;;;8.49;79.24;97651.00;1757391;82;21124;-68
2021/04/19 06:42:17;;;;;;;4.08;3.33;;;;;;;8.53;79.10;97649.77;1757399;82;21142;-68
2021/04/19 06:44:46;;;;;;;3.35;2.55;;;;;;;8.59;78.99;97653.13;1757459;81;21154;-68
2021/04/19 06:47:16;;;;;;;8.63;5.28;;;;;;;8.61;78.80;97649.91;1757330;81;21600;-68
2021/04/19 06:49:48;;;;;;;6.72;4.83;;;;;;;8.69;78.58;97651.80;1757454;81;21226;-69
2021/04/19 06:52:27;;;;;;;5.67;3.72;;;;;;;8.57;78.59;97654.55;1716730;82;21555;-69
2021/04/19 06:54:55;;;;;;;9.20;5.62;;;;;;;8.68;78.95;97647.58;1717964;82;21197;-68
2021/04/19 06:57:26;;;;;;;7.92;4.95;;;;;;;8.69;78.82;97655.22;1717551;82;21165;-68
2021/04/19 06:59:56;;;;;;;5.37;4.15;;;;;;;8.76;78.73;97650.29;1718112;82;21138;-68
2021/04/19 07:02:27;;;;;;;5.40;4.62;;;;;;;8.66;78.27;97647.73;1717938;82;21363;-68
2021/04/19 07:04:58;;;;;;;6.00;4.47;;;;;;;8.67;78.90;97651.96;1717842;82;21599;-68
2021/04/19 07:07:33;;;;;;;6.17;3.95;;;;;;;8.60;78.72;97650.06;1717882;82;21173;-71
2021/04/19 07:10:06;;;;;;;12.25;6.25;;;;;;;8.69;78.12;97647.45;1717576;82;21157;-68
2021/04/19 07:12:37;;;;;;;8.43;4.70;;;;;;;8.81;77.88;97644.22;1717840;82;21304;-68
2021/04/19 07:15:07;;;;;;;11.73;5.17;;;;;;;8.90;77.42;97641.63;1717906;82;21166;-68
2021/04/19 07:17:35;;;;;;;5.58;3.50;;;;;;;8.90;76.86;97641.63;1717795;82;21173;-68
2021/04/19 07:20:06;;;;;;;5.35;4.08;;;;;;;8.96;77.09;97638.47;1717862;82;21169;-68
2021/04/19 07:22:34;;;;;;;7.75;5.12;;;;;;;9.05;76.63;97642.81;1717782;82;21724;-68
2021/04/19 07:25:05;;;;;;;7.12;4.03;;;;;;;8.96;75.93;97635.05;1718166;82;21617;-68
2021/04/19 07:27:39;;;;;;;6.03;4.05;;;;;;;9.04;75.71;97633.41;1717817;83;21666;-68
2021/04/19 07:30:11;;;;;;;6.08;3.58;;;;;;;9.00;75.55;97629.94;1717740;82;21756;-68
2021/04/19 07:32:40;;;;;;;8.63;3.98;;;;;;;9.09;75.41;97634.75;1718063;82;21181;-68
2021/04/19 07:35:31;;;;;;;5.25;3.22;;;;;;;9.00;74.95;97632.52;1717458;82;21349;-69
2021/04/19 07:38:03;;;;;;;4.55;3.40;;;;;;;8.96;74.57;97625.99;1744287;81;21200;-70
2021/04/19 07:40:43;;;;;;;4.35;2.77;;;;;;;8.88;75.70;97625.40;1744375;82;21164;-69
2021/04/19 07:43:24;;;;;;;5.78;3.20;;;;;;;9.04;74.96;97624.81;1777952;80;21585;-69
2021/04/19 07:46:09;;;;;;;4.78;3.47;;;;;;;9.26;74.67;97617.97;1779559;80;21183;-69
2021/04/19 07:48:51;;;;;;;6.75;4.10;;;;;;;9.01;73.05;97618.62;1639658;86;21613;-69
2021/04/19 07:51:31;;;;;;;8.85;4.15;;;;;;;9.25;72.75;97620.73;1639732;86;21267;-68
2021/04/19 07:54:19;;;;;;;7.40;4.33;;;;;;;9.12;72.90;97617.63;1639596;85;21271;-69
2021/04/19 07:56:56;;;;;;;5.42;2.92;;;;;;;9.27;72.54;97614.91;1639748;85;21638;-68
2021/04/19 07:59:29;;;;;;;5.62;2.75;;;;;;;9.41;70.98;97609.27;1639065;86;21195;-69
2021/04/19 08:02:04;;;;;;;3.55;2.35;;;;;;;9.48;69.28;97612.91;1639486;85;21208;-69
2021/04/19 08:04:34;;;;;;;5.30;3.10;;;;;;;9.63;69.46;97606.28;1639608;86;21224;-69
2021/04/19 08:07:02;;;;;;;5.72;3.12;;;;;;;9.70;70.11;97602.61;1639811;85;21608;-72
2021/04/19 08:09:32;;;;;;;5.70;2.47;;;;;;;9.98;70.38;97601.62;1639576;86;21164;-68
2021/04/19 08:14:54;;;;;;;4.62;3.00;;;;;;;9.92;69.30;97592.63;1758931;80;21215;-69
2021/04/19 08:17:28;;;;;;;5.33;3.00;;;;;;;10.31;68.63;97593.17;1759133;80;21564;-70
2021/04/19 08:19:59;;;;;;;10.05;3.55;;;;;;;10.64;68.91;97592.95;1759277;80;21182;-70
2021/04/19 08:22:29;;;;;;;5.80;3.35;;;;;;;10.48;67.32;97596.72;1758976;80;21667;-69
2021/04/19 08:25:19;;;;;;;5.15;3.50;;;;;;;10.61;66.82;97592.45;1758920;80;21600;-70
2021/04/19 08:30:50;;;;;;;5.50;3.52;;;;;;;10.20;67.19;97588.22;1662594;83;21208;-69
2021/04/19 08:33:19;;;;;;;3.98;3.00;;;;;;;10.18;66.72;97586.75;1659421;85;21620;-69
2021/04/19 08:35:50;;;;;;;5.22;3.10;;;;;;;10.55;66.87;97592.55;1671341;86;21681;-69
2021/04/19 08:38:21;;;;;;;5.50;3.67;;;;;;;10.60;65.86;97587.73;1671286;85;21193;-69
2021/04/19 08:40:51;;;;;;;4.70;2.80;;;;;;;10.70;65.34;97592.33;1671324;86;21188;-69
2021/04/19 08:43:23;;;;;;;3.05;2.40;;;;;;;10.61;65.82;97588.55;1659543;86;21255;-70
2021/04/19 08:45:51;;;;;;;3.62;2.17;;;;;;;10.46;66.56;97587.81;1659638;85;21179;-68
2021/04/19 08:48:19;;;;;;;6.95;2.55;;;;;;;10.47;65.50;97597.20;1659633;86;21200;-68
2021/04/19 08:50:51;;;;;;;2.42;2.20;;;;;;;10.28;66.10;97590.06;1659838;86;21584;-69
2021/04/19 08:53:21;;;;;;;7.33;4.80;;;;;;;10.29;65.74;97584.74;1659350;86;21152;-69
2021/04/19 08:55:50;;;;;;;4.10;3.20;;;;;;;10.08;67.18;97597.67;1671134;86;21224;-70
2021/04/19 08:58:19;;;;;;;7.20;3.15;;;;;;;10.32;67.04;97588.33;1659356;86;21196;-70
2021/04/19 09:00:51;;;;;;;5.72;2.90;;;;;;;10.44;66.12;97587.13;1659551;86;21244;-70
2021/04/19 09:03:21;;;;;;;6.22;2.45;;;;;;;10.48;65.40;97585.05;1671262;86;21228;-70
2021/04/19 09:05:49;;;;;;;5.78;2.22;;;;;;;10.43;65.11;97588.08;1671330;85;21172;-70
2021/04/19 09:08:23;;;;;;;3.90;2.25;;;;;;;10.51;65.56;97587.33;1671359;86;21244;-70
2021/04/19 09:11:06;;;;;;;2.35;2.12;;;;;;;10.48;65.67;97582.45;1671294;86;21232;-69
2021/04/19 09:13:54;;;;;;;4.53;2.55;;;;;;;10.44;66.16;97574.15;1670421;85;21196;-68
2021/04/19 09:16:24;;;;;;;3.50;2.45;;;;;;;10.38;65.45;97576.54;1687843;84;21140;-68
2021/04/19 09:18:58;;;;;;;3.95;2.50;;;;;;;10.30;65.23;97576.48;1688758;84;21176;-69
2021/04/19 09:21:49;;;;;;;5.28;3.37;;;;;;;10.30;64.72;97576.48;1688567;84;21128;-72
2021/04/19 09:24:20;;;;;;;6.83;2.75;;;;;;;10.35;65.70;97584.64;1688450;84;21159;-69
2021/04/19 09:26:55;;;;;;;5.42;3.02;;;;;;;10.46;66.23;97579.20;1688445;85;21187;-70
2021/04/19 09:29:32;;;;;;;5.33;3.33;;;;;;;10.27;67.01;97578.87;1688130;84;21171;-70
2021/04/19 09:32:10;;;;;;;6.60;3.60;;;;;;;10.21;66.97;97578.19;1691586;84;21150;-69
2021/04/19 09:34:58;;;;;;;6.85;2.75;;;;;;;10.31;66.56;97582.01;1693852;84;21195;-68
2021/04/19 09:37:43;;;;;;;3.67;2.50;;;;;;;10.19;66.79;97587.09;1693836;84;21184;-68
2021/04/19 09:40:15;;;;;;;5.85;3.00;;;;;;;10.28;66.42;97582.28;1694091;84;21151;-69
2021/04/19 09:43:04;;;;;;;3.52;2.90;;;;;;;10.16;65.93;97583.00;1692990;84;21143;-68
2021/04/19 09:45:52;;;;;;;10.10;3.20;;;;;;;10.25;66.43;97587.78;1693747;84;21158;-67
2021/04/19 09:48:34;;;;;;;2.75;2.27;;;;;;;10.28;66.62;97585.70;1679000;84;21162;-69
2021/04/19 09:51:18;;;;;;;5.03;2.42;;;;;;;10.48;65.91;97581.15;1693727;85;21203;-70
2021/04/19 09:53:58;;;;;;;4.08;2.85;;;;;;;10.50;65.90;97576.64;1693951;85;21160;-69
2021/04/19 09:56:33;;;;;;;4.65;2.90;;;;;;;10.30;65.41;97579.89;1693760;84;21152;-67
2021/04/19 09:59:03;;;;;;;5.37;3.47;;;;;;;10.58;65.58;97566.79;1693929;84;21226;-68
2021/04/19 10:01:33;;;;;;;3.65;2.47;;;;;;;10.67;64.85;97569.27;1693804;85;21648;-68
2021/04/19 10:04:01;;;;;;;3.77;2.27;;;;;;;10.93;63.87;97564.88;1693664;85;21197;-68
2021/04/19 10:07:04;;;;;;;3.62;2.67;;;;;;;10.89;63.50;97562.25;1693744;83;21600;-69
2021/04/19 10:09:35;;;;;;;5.33;3.00;;;;;;;10.92;62.22;97560.67;1638978;87;21246;-69
2021/04/19 10:12:07;;;;;;;3.75;2.17;;;;;;;11.18;61.73;97557.20;1636470;87;21580;-70
2021/04/19 10:14:48;;;;;;;3.42;2.40;;;;;;;11.18;60.34;97555.42;1636364;87;21211;-71
2021/04/19 10:17:22;;;;;;;4.65;2.40;;;;;;;11.38;60.14;97550.30;1636305;87;21139;-70
2021/04/19 10:19:51;;;;;;;4.60;2.10;;;;;;;11.79;60.88;97546.03;1636469;87;21232;-71
2021/04/19 10:22:19;;;;;;;5.55;3.17;;;;;;;12.11;57.49;97543.95;1636288;87;21203;-71
2021/04/19 10:24:57;;;;;;;5.97;2.90;;;;;;;11.87;58.70;97543.45;1636354;87;21147;-74
2021/04/19 10:27:32;;;;;;;5.83;2.62;;;;;;;11.94;59.57;97541.52;1636308;87;21268;-71
2021/04/19 10:30:17;;;;;;;3.87;2.55;;;;;;;12.02;58.67;97545.44;1636573;87;21155;-71
2021/04/19 10:32:45;;;;;;;3.70;3.08;;;;;;;11.82;58.01;97543.13;1636462;87;21163;-71
2021/04/19 10:35:50;;;;;;;6.90;4.80;;;;;;;11.92;58.21;97546.87;1636527;87;21197;-71
2021/04/19 10:38:27;;;;;;;3.50;2.77;;;;;;;11.82;58.91;97543.13;1617929;88;21192;-69
2021/04/19 10:41:00;;;;;;;3.75;2.65;;;;;;;11.89;59.13;97542.81;1645995;86;21695;-71
2021/04/19 10:43:28;;;;;;;4.08;2.25;;;;;;;12.07;57.70;97549.16;1645841;87;21170;-69
2021/04/19 10:45:56;;;;;;;3.83;2.25;;;;;;;12.15;57.78;97539.23;1645731;87;21175;-68
2021/04/19 10:48:28;;;;;;;6.85;3.50;;;;;;;12.31;56.98;97535.33;1645911;87;21682;-68
2021/04/19 10:51:20;;;;;;;6.30;2.90;;;;;;;12.24;57.71;97535.67;1666219;86;21183;-67
2021/04/19 10:53:48;;;;;;;4.58;2.35;;;;;;;12.41;57.24;97533.88;1660881;86;21200;-71
2021/04/19 10:56:22;;;;;;;4.58;2.08;;;;;;;12.51;56.56;97531.41;1654723;87;21196;-71
2021/04/19 10:58:54;;;;;;;5.03;3.15;;;;;;;12.64;55.82;97532.22;1654702;87;21244;-70
2021/04/19 11:01:30;;;;;;;12.70;2.33;;;;;;;12.56;56.14;97535.65;1654652;87;21211;-70
2021/04/19 11:04:07;;;;;;;5.37;2.75;;;;;;;12.66;55.73;97518.52;1780557;79;22956;-70
2021/04/19 11:06:38;;;;;;;4.72;2.72;;;;;;;12.43;56.94;97526.22;1753408;82;21509;-69
2021/04/19 11:09:30;;;;;;;6.58;4.17;;;;;;;12.02;57.54;97525.91;1753189;82;21561;-70
2021/04/19 11:12:04;;;;;;;4.87;3.35;;;;;;;12.05;57.61;97527.70;1768382;81;21235;-69
2021/04/19 11:14:42;;;;;;;3.95;2.62;;;;;;;12.03;57.84;97527.03;1742586;81;21136;-72
2021/04/19 11:17:10;;;;;;;3.17;2.30;;;;;;;11.82;57.76;97524.11;1768733;81;21183;-71
2021/04/19 11:19:43;;;;;;;4.15;2.30;;;;;;;11.91;57.66;97519.22;1768666;81;21702;-68
2021/04/19 11:22:34;;;;;;;21.82;9.88;;;;;;;12.12;57.87;97519.56;1768476;81;21123;-68
2021/04/19 11:25:20;;;;;;;11.10;6.42;;;;;;;12.21;57.40;97521.20;1767050;81;21647;-69
2021/04/19 11:27:51;;;;;;;7.67;4.58;;;;;;;12.24;57.36;97523.47;1768472;81;21357;-68
2021/04/19 11:30:25;;;;;;;8.18;3.98;;;;;;;12.07;56.17;97521.02;1768454;81;21183;-67
2021/04/19 11:33:08;;;;;;;3.22;2.52;;;;;;;11.95;56.02;97523.61;1768495;81;21167;-67
2021/04/19 11:38:29;;;;;;;5.42;2.17;;;;;;;11.72;57.20;97513.02;1811949;79;21290;-66
2021/04/19 11:41:06;;;;;;;12.05;7.15;;;;;;;11.67;57.32;97516.06;1811612;79;21305;-67
2021/04/19 11:43:48;;;;;;;5.12;3.35;;;;;;;11.30;58.17;97515.18;1792273;80;21270;-67
2021/04/19 11:49:11;;;;;;;5.53;3.08;;;;;;;11.26;58.60;97490.95;1655792;86;21163;-67
2021/04/19 11:51:39;;;;;;;9.38;4.17;;;;;;;11.13;59.97;97508.77;1689259;85;21176;-68
2021/04/19 11:54:11;;;;;;;6.00;2.92;;;;;;;11.13;60.72;97512.19;1689544;85;21199;-68
2021/04/19 11:56:40;;;;;;;4.60;2.98;;;;;;;11.15;60.29;97505.55;1689544;84;21184;-68
2021/04/19 11:59:10;;;;;;;6.42;2.80;;;;;;;11.26;60.00;97500.87;1689381;84;21616;-68
2021/04/19 12:01:39;;;;;;;5.50;3.58;;;;;;;11.30;60.21;97500.88;1689481;84;21176;-70
2021/04/19 12:04:11;;;;;;;4.92;2.87;;;;;;;11.24;60.67;97502.02;1689474;85;21222;-68
2021/04/19 12:06:39;;;;;;;4.83;3.08;;;;;;;11.31;60.29;97499.10;1656105;87;21172;-67
2021/04/19 12:09:07;;;;;;;4.12;2.77;;;;;;;11.33;60.44;97492.77;1689482;84;21570;-67
2021/04/19 12:11:36;;;;;;;6.37;3.08;;;;;;;11.43;60.25;97499.14;1689543;85;21175;-67
2021/04/19 12:14:04;;;;;;;6.37;2.92;;;;;;;11.32;61.12;97496.33;1689145;85;21179;-68
2021/04/19 12:16:32;;;;;;;4.30;3.27;;;;;;;11.37;61.02;97495.38;1689368;84;21235;-68
2021/04/19 12:19:01;;;;;;;5.17;3.47;;;;;;;11.38;60.74;97490.98;1689225;85;21688;-69
2021/04/19 12:21:30;;;;;;;5.62;3.62;;;;;;;11.29;60.93;97494.05;1689034;84;21605;-68
2021/04/19 12:24:02;;;;;;;6.95;4.40;;;;;;;11.16;61.11;97489.80;1688502;84;21171;-68
2021/04/19 12:26:31;;;;;;;5.10;3.55;;;;;;;10.99;61.77;97490.70;1688959;85;21644;-68
2021/04/19 12:29:03;;;;;;;5.83;3.12;;;;;;;10.93;61.41;97493.94;1687651;83;21172;-67
2021/04/19 12:31:32;;;;;;;5.17;3.42;;;;;;;11.04;60.97;97493.66;1670488;85;21160;-67